createdAt,value
2022-08-07T15:06:54.635Z,15.12
2022-08-07T15:10:01.436Z,15.16
2022-08-07T15:13:25.304Z,15.30
2022-08-07T15:16:39.708Z,15.35
2022-08-07T15:20:32.924Z,15.44
2022-08-07T15:25:13.711Z,15.56
2022-08-07T15:27:26.213Z,15.58
2022-08-07T15:30:34.284Z,15.55
2022-08-07T15:33:42.708Z,15.57
2022-08-07T15:37:03.209Z,15.57
2022-08-07T15:40:20.504Z,15.66
2022-08-07T15:43:55.789Z,15.68
2022-08-07T15:47:08.724Z,15.59
2022-08-07T15:50:37.620Z,15.57
2022-08-07T15:53:52.871Z,15.57
2022-08-07T15:57:00.521Z,15.57
2022-08-07T16:00:06.847Z,15.65
2022-08-07T16:03:20.855Z,15.62
2022-08-07T16:06:36.052Z,15.55
2022-08-07T16:09:54.745Z,15.38
2022-08-07T16:13:57.524Z,15.25
2022-08-07T16:16:56.901Z,15.17
2022-08-07T16:20:38.272Z,15.16
2022-08-07T16:24:34.886Z,15.21
2022-08-07T16:27:59.459Z,15.12
2022-08-07T16:31:51.667Z,15.02
2022-08-07T16:34:56.347Z,14.82
2022-08-07T16:39:01.369Z,14.67
2022-08-07T16:42:42.687Z,14.68
2022-08-07T16:46:21.298Z,14.58
2022-08-07T16:50:20.518Z,14.45
2022-08-07T16:53:57.198Z,14.33
2022-08-07T16:56:44.577Z,14.32
2022-08-07T16:59:58.559Z,14.18
2022-08-07T17:03:05.852Z,14.16
2022-08-07T17:06:29.848Z,14.18
2022-08-07T17:10:06.914Z,14.24
2022-08-07T17:13:23.125Z,14.15
2022-08-07T17:16:34.355Z,14.13
2022-08-07T17:20:00.866Z,14.16
2022-08-07T17:23:32.191Z,14.20
2022-08-07T17:26:56.577Z,14.23
2022-08-07T17:30:19.970Z,14.19
2022-08-07T17:34:08.715Z,14.15
2022-08-07T17:37:08.979Z,14.26
2022-08-07T17:40:34.994Z,14.32
2022-08-07T17:44:02.713Z,14.32
2022-08-07T17:47:38.554Z,14.29
2022-08-07T17:51:01.669Z,14.21
2022-08-07T17:54:14.749Z,14.19
2022-08-07T17:57:59.314Z,14.16
2022-08-07T18:01:20.942Z,14.16
2022-08-07T18:04:38.507Z,14.14
2022-08-07T18:07:52.873Z,14.14
2022-08-07T18:12:07.414Z,14.12
2022-08-07T18:15:00.553Z,14.05
2022-08-07T18:18:46.011Z,14.01
2022-08-07T18:21:54.936Z,13.97
2022-08-07T18:25:23.831Z,13.90
2022-08-07T18:28:58.292Z,13.82
2022-08-07T18:32:05.823Z,13.72
2022-08-07T18:35:52.082Z,13.58
2022-08-07T18:40:05.837Z,13.48
2022-08-07T18:43:01.254Z,13.44
2022-08-07T18:46:26.009Z,13.36
2022-08-07T18:50:39.128Z,13.21
2022-08-07T18:53:48.681Z,13.17
2022-08-07T18:57:30.751Z,13.16
2022-08-07T19:00:42.709Z,13.25
2022-08-07T19:04:09.816Z,13.38
2022-08-07T19:07:34.358Z,13.43
2022-08-07T19:11:00.120Z,13.47
2022-08-07T19:14:37.314Z,13.50
2022-08-07T19:18:01.140Z,13.53
2022-08-07T19:21:47.524Z,13.55
2022-08-07T19:24:51.229Z,13.55
2022-08-07T19:30:54.566Z,13.48
2022-08-07T19:31:59.835Z,13.53
2022-08-07T19:35:02.365Z,13.50
2022-08-07T19:38:15.736Z,13.43
2022-08-07T19:41:45.026Z,13.46
2022-08-07T19:44:49.898Z,13.43
2022-08-07T19:47:56.525Z,13.45
2022-08-07T19:51:04.076Z,13.41
2022-08-07T19:54:34.445Z,13.27
2022-08-07T19:58:13.531Z,13.26
2022-08-07T20:01:19.237Z,13.25
2022-08-07T20:04:31.820Z,13.32
2022-08-07T20:07:47.636Z,13.35
2022-08-07T20:10:57.288Z,13.38
2022-08-07T20:14:20.611Z,13.37
2022-08-07T20:17:27.686Z,13.37
2022-08-07T20:20:34.063Z,13.36
2022-08-07T20:23:49.547Z,13.40
2022-08-07T20:27:00.334Z,13.41
2022-08-07T20:30:07.754Z,13.38
2022-08-07T20:33:36.296Z,13.36
2022-08-07T20:36:43.142Z,13.37
2022-08-07T20:40:03.600Z,13.37
2022-08-07T20:43:16.962Z,13.20
2022-08-07T20:46:34.572Z,13.10
2022-08-07T20:49:59.098Z,12.91
2022-08-07T20:53:06.463Z,12.83
2022-08-07T20:56:11.048Z,12.74
2022-08-07T21:00:05.203Z,12.68
2022-08-07T21:02:59.170Z,12.69
2022-08-07T21:06:21.837Z,12.66
2022-08-07T21:09:51.925Z,12.61
2022-08-07T21:13:04.006Z,12.56
2022-08-07T21:16:09.754Z,12.53
2022-08-07T21:19:15.639Z,12.53
2022-08-07T21:22:28.234Z,12.53
2022-08-07T21:25:56.877Z,12.53
2022-08-07T21:29:15.556Z,12.51
2022-08-07T21:32:47.840Z,12.49
2022-08-07T21:36:11.654Z,12.57
2022-08-07T21:39:46.279Z,12.60
2022-08-07T21:43:10.631Z,12.58
2022-08-07T21:46:31.655Z,12.54
2022-08-07T21:50:02.674Z,12.54
2022-08-07T21:53:13.475Z,12.62
2022-08-07T21:56:36.394Z,12.63
2022-08-07T22:00:05.774Z,12.66
2022-08-07T22:03:31.369Z,12.75
2022-08-07T22:06:56.004Z,12.82
2022-08-07T22:10:03.617Z,12.83
2022-08-07T22:13:13.719Z,12.78
2022-08-07T22:16:44.940Z,12.87
2022-08-07T22:20:07.104Z,12.90
2022-08-07T22:23:45.934Z,12.89
2022-08-07T22:27:04.176Z,12.91
2022-08-07T22:30:17.440Z,12.90
2022-08-07T22:33:52.654Z,12.94
2022-08-07T22:37:13.741Z,13.03
2022-08-07T22:40:40.951Z,13.21
2022-08-07T22:43:57.967Z,13.47
2022-08-07T22:47:26.516Z,14.22
